Time,TemperatureF,DewpointF,PressureIn,WindDirection,WindDirectionDegrees,WindSpeedMPH,WindSpeedGustMPH,Humidity,HourlyPrecipIn,Conditions,Clouds,dailyrainin,SoftwareType,DateUTC
2013-09-19 00:04:00,50.5,48.3,30.09,NW,305,0.0,0.0,92,0.00,FEW,OVC,0.00,WeatherDisplay:10.37,2013-09-19 04:04:00,
2013-09-19 00:09:00,50.9,48.3,30.08,NW,304,0.0,2.0,91,0.00,FEW,OVC,0.00,WeatherDisplay:10.37,2013-09-19 04:09:00,
2013-09-19 00:14:00,51.6,48.8,30.09,WNW,293,0.0,3.0,90,0.00,SCT,OVC,0.00,WeatherDisplay:10.37,2013-09-19 04:14:00,
2013-09-19 00:19:00,52.2,48.8,30.09,WNW,298,0.0,3.0,88,0.00,SCT,OVC,0.00,WeatherDisplay:10.37,2013-09-19 04:19:00,
2013-09-19 00:24:00,52.8,49.0,30.09,WNW,297,0.0,3.0,87,0.00,SCT,OVC,0.00,WeatherDisplay:10.37,2013-09-19 04:24:00,
2013-09-19 00:29:00,53.6,49.2,30.08,WNW,298,0.0,2.0,85,0.00,SCT,OVC,0.00,WeatherDisplay:10.37,2013-09-19 04:29:00,
2013-09-19 00:34:00,54.0,48.9,30.08,WNW,288,0.0,4.0,83,0.00,SCT,OVC,0.00,WeatherDisplay:10.37,2013-09-19 04:34:00,
2013-09-19 00:39:00,54.1,49.0,30.08,WNW,296,0.0,2.0,83,0.00,SCT,OVC,0.00,WeatherDisplay:10.37,2013-09-19 04:39:00,
2013-09-19 00:44:00,54.1,48.7,30.08,NW,304,0.0,2.0,82,0.00,SCT,OVC,0.00,WeatherDisplay:10.37,2013-09-19 04:44:00,
2013-09-19 00:49:00,53.6,48.6,30.08,NW,307,0.0,3.0,83,0.00,SCT,OVC,0.00,WeatherDisplay:10.37,2013-09-19 04:49:00,
2013-09-19 00:54:00,53.6,48.6,30.08,NW,317,0.0,2.0,83,0.00,SCT,OVC,0.00,WeatherDisplay:10.37,2013-09-19 04:54:00,
2013-09-19 00:59:00,53.3,48.3,30.08,WNW,297,0.0,1.0,83,0.00,SCT,OVC,0.00,WeatherDisplay:10.37,2013-09-19 04:59:00,
2013-09-19 01:04:00,53.0,48.3,30.09,NW,305,0.0,4.0,84,0.00,SCT,OVC,0.00,WeatherDisplay:10.37,2013-09-19 05:04:00,
2013-09-19 01:09:00,53.0,48.3,30.09,NW,312,0.0,4.0,84,0.00,SCT,OVC,0.00,WeatherDisplay:10.37,2013-09-19 05:09:00,
2013-09-19 01:14:00,52.9,48.2,30.09,NW,318,0.0,3.0,84,0.00,SCT,OVC,0.00,WeatherDisplay:10.37,2013-09-19 05:14:00,
2013-09-19 01:19:00,53.0,48.0,30.09,NW,324,0.0,0.0,83,0.00,SCT,OVC,0.00,WeatherDisplay:10.37,2013-09-19 05:19:00,
2013-09-19 01:24:00,52.5,48.2,30.09,NW,325,0.0,0.0,85,0.00,SCT,OVC,0.00,WeatherDisplay:10.37,2013-09-19 05:24:00,
2013-09-19 01:29:00,52.1,48.0,30.09,NW,325,0.0,0.0,86,0.00,SCT,OVC,0.00,WeatherDisplay:10.37,2013-09-19 05:29:00,
2013-09-19 01:34:00,51.7,47.6,30.09,NW,325,0.0,0.0,86,0.00,SCT,OVC,0.00,WeatherDisplay:10.37,2013-09-19 05:34:00,
2013-09-19 01:39:00,51.0,47.6,30.09,NW,325,0.0,0.0,88,0.00,SCT,OVC,0.00,WeatherDisplay:10.37,2013-09-19 05:39:00,
2013-09-19 01:44:00,50.6,47.1,30.09,NW,325,0.0,0.0,88,0.00,SCT,OVC,0.00,WeatherDisplay:10.37,2013-09-19 05:44:00,
2013-09-19 01:49:00,50.0,47.2,30.09,NW,325,0.0,0.0,90,0.00,SCT,OVC,0.00,WeatherDisplay:10.37,2013-09-19 05:49:00,
2013-09-19 01:54:00,49.6,47.1,30.09,NW,325,0.0,0.0,91,0.00,SCT,OVC,0.00,WeatherDisplay:10.37,2013-09-19 05:54:00,
2013-09-19 01:59:00,49.0,46.5,30.09,NW,325,0.0,0.0,91,0.00,SCT,OVC,0.00,WeatherDisplay:10.37,2013-09-19 05:59:00,
2013-09-19 02:04:00,48.4,46.2,30.09,NW,325,0.0,0.0,92,0.00,SCT,OVC,0.00,WeatherDisplay:10.37,2013-09-19 06:04:00,
2013-09-19 02:09:00,48.0,45.8,30.09,NW,325,0.0,0.0,92,0.00,SCT,OVC,0.00,WeatherDisplay:10.37,2013-09-19 06:09:00,
2013-09-19 02:14:00,47.6,45.6,30.09,NW,325,0.0,0.0,93,0.00,SCT,OVC,0.00,WeatherDisplay:10.37,2013-09-19 06:14:00,
2013-09-19 02:19:00,47.3,45.4,30.09,NW,325,0.0,0.0,93,0.00,SCT,OVC,0.00,WeatherDisplay:10.37,2013-09-19 06:19:00,
2013-09-19 02:24:00,47.1,45.5,30.09,NW,325,0.0,0.0,94,0.00,SCT,OVC,0.00,WeatherDisplay:10.37,2013-09-19 06:24:00,
2013-09-19 02:29:00,46.9,45.3,30.09,NW,325,0.0,0.0,94,0.00,SCT,OVC,0.00,WeatherDisplay:10.37,2013-09-19 06:29:00,
2013-09-19 02:34:00,46.6,45.0,30.09,NW,325,0.0,0.0,94,0.00,SCT,OVC,0.00,WeatherDisplay:10.37,2013-09-19 06:34:00,
2013-09-19 02:39:00,46.2,44.6,30.09,NW,325,0.0,0.0,94,0.00,SCT,OVC,0.00,WeatherDisplay:10.37,2013-09-19 06:39:00,
2013-09-19 02:44:00,46.0,44.6,30.09,NW,325,0.0,0.0,95,0.00,SCT,OVC,0.00,WeatherDisplay:10.37,2013-09-19 06:44:00,
2013-09-19 02:49:00,45.9,44.5,30.08,NW,325,0.0,0.0,95,0.00,SCT,OVC,0.00,WeatherDisplay:10.37,2013-09-19 06:49:00,
2013-09-19 02:54:00,45.7,44.4,30.08,NW,325,0.0,0.0,95,0.00,SCT,OVC,0.00,WeatherDisplay:10.37,2013-09-19 06:54:00,
2013-09-19 02:59:00,45.6,44.3,30.08,NW,325,0.0,0.0,95,0.00,SCT,OVC,0.00,WeatherDisplay:10.37,2013-09-19 06:59:00,
2013-09-19 03:04:00,45.4,44.1,30.08,NW,325,0.0,0.0,95,0.00,SCT,OVC,0.00,WeatherDisplay:10.37,2013-09-19 07:04:00,
2013-09-19 03:09:00,45.3,43.9,30.08,NW,325,0.0,0.0,95,0.00,SCT,OVC,0.00,WeatherDisplay:10.37,2013-09-19 07:09:00,
2013-09-19 03:14:00,45.1,43.8,30.08,NW,325,0.0,0.0,95,0.00,SKC,OVC,0.00,WeatherDisplay:10.37,2013-09-19 07:14:00,
2013-09-19 03:19:00,45.0,43.6,30.08,NW,325,0.0,0.0,95,0.00,SKC,OVC,0.00,WeatherDisplay:10.37,2013-09-19 07:19:00,
2013-09-19 03:24:00,44.8,43.4,30.08,NW,325,0.0,0.0,95,0.00,SKC,OVC,0.00,WeatherDisplay:10.37,2013-09-19 07:24:00,
2013-09-19 03:29:00,44.6,43.3,30.08,NW,325,0.0,0.0,95,0.00,SKC,OVC,0.00,WeatherDisplay:10.37,2013-09-19 07:29:00,
2013-09-19 03:34:00,44.6,43.3,30.08,NW,325,0.0,0.0,95,0.00,SKC,OVC,0.00,WeatherDisplay:10.37,2013-09-19 07:34:00,
2013-09-19 03:39:00,44.6,43.5,30.08,NW,325,0.0,0.0,96,0.00,SKC,OVC,0.00,WeatherDisplay:10.37,2013-09-19 07:39:00,
2013-09-19 03:44:00,44.4,43.1,30.08,NW,325,0.0,0.0,95,0.00,SKC,OVC,0.00,WeatherDisplay:10.37,2013-09-19 07:44:00,
2013-09-19 03:49:00,44.3,43.2,30.08,NW,325,0.0,0.0,96,0.00,SKC,OVC,0.00,WeatherDisplay:10.37,2013-09-19 07:49:00,
2013-09-19 03:54:00,44.1,43.0,30.07,NW,325,0.0,0.0,96,0.00,SKC,OVC,0.00,WeatherDisplay:10.37,2013-09-19 07:54:00,
2013-09-19 03:59:00,44.0,42.9,30.08,NW,325,0.0,0.0,96,0.00,SKC,OVC,0.00,WeatherDisplay:10.37,2013-09-19 07:59:00,
2013-09-19 04:04:00,43.8,42.5,30.08,NW,325,0.0,0.0,95,0.00,SKC,OVC,0.00,WeatherDisplay:10.37,2013-09-19 08:04:00,
2013-09-19 04:09:00,43.7,42.6,30.08,NW,325,0.0,0.0,96,0.00,SKC,OVC,0.00,WeatherDisplay:10.37,2013-09-19 08:09:00,
2013-09-19 04:14:00,43.5,42.4,30.08,NW,325,0.0,0.0,96,0.00,SKC,OVC,0.00,WeatherDisplay:10.37,2013-09-19 08:14:00,
2013-09-19 04:19:00,43.4,42.3,30.08,NW,325,0.0,0.0,96,0.00,SKC,OVC,0.00,WeatherDisplay:10.37,2013-09-19 08:19:00,
2013-09-19 04:24:00,43.3,42.2,30.08,NW,325,0.0,0.0,96,0.00,SKC,OVC,0.00,WeatherDisplay:10.37,2013-09-19 08:24:00,
2013-09-19 04:29:00,43.2,42.1,30.08,NW,325,0.0,0.0,96,0.00,SKC,OVC,0.00,WeatherDisplay:10.37,2013-09-19 08:29:00,
2013-09-19 04:34:00,43.2,42.1,30.08,NW,325,0.0,0.0,96,0.00,SKC,OVC,0.00,WeatherDisplay:10.37,2013-09-19 08:34:00,
2013-09-19 04:39:00,42.9,41.9,30.08,NW,325,0.0,0.0,96,0.00,SKC,OVC,0.00,WeatherDisplay:10.37,2013-09-19 08:39:00,
2013-09-19 04:44:00,42.9,41.9,30.08,NW,325,0.0,0.0,96,0.00,SKC,OVC,0.00,WeatherDisplay:10.37,2013-09-19 08:44:00,
2013-09-19 04:49:00,42.8,41.7,30.08,NW,325,0.0,0.0,96,0.00,SKC,OVC,0.00,WeatherDisplay:10.37,2013-09-19 08:49:00,
2013-09-19 04:54:00,42.7,41.7,30.08,NW,325,0.0,0.0,96,0.00,SKC,OVC,0.00,WeatherDisplay:10.37,2013-09-19 08:54:00,
2013-09-19 04:59:00,42.6,41.5,30.08,NW,325,0.0,0.0,96,0.00,SKC,OVC,0.00,WeatherDisplay:10.37,2013-09-19 08:59:00,
2013-09-19 05:04:00,42.5,41.5,30.08,NW,325,0.0,0.0,96,0.00,SKC,OVC,0.00,WeatherDisplay:10.37,2013-09-19 09:04:00,
2013-09-19 05:09:00,42.4,41.3,30.08,NW,325,0.0,0.0,96,0.00,SKC,OVC,0.00,WeatherDisplay:10.37,2013-09-19 09:09:00,
2013-09-19 05:14:00,42.3,41.3,30.08,NW,325,0.0,0.0,96,0.00,SKC,OVC,0.00,WeatherDisplay:10.37,2013-09-19 09:14:00,
2013-09-19 05:19:00,42.2,41.1,30.08,NW,325,0.0,0.0,96,0.00,SKC,OVC,0.00,WeatherDisplay:10.37,2013-09-19 09:19:00,
2013-09-19 05:24:00,42.2,41.1,30.08,NW,325,0.0,0.0,96,0.00,SKC,OVC,0.00,WeatherDisplay:10.37,2013-09-19 09:24:00,
2013-09-19 05:29:00,42.1,41.0,30.08,NW,325,0.0,0.0,96,0.00,SKC,OVC,0.00,WeatherDisplay:10.37,2013-09-19 09:29:00,
2013-09-19 05:34:00,42.0,40.9,30.08,NW,325,0.0,0.0,96,0.00,SKC,OVC,0.00,WeatherDisplay:10.37,2013-09-19 09:34:00,
2013-09-19 05:39:00,42.0,40.9,30.08,NW,325,0.0,0.0,96,0.00,SKC,OVC,0.00,WeatherDisplay:10.37,2013-09-19 09:39:00,
2013-09-19 05:44:00,41.8,40.8,30.08,NW,325,0.0,0.0,96,0.00,SKC,OVC,0.00,WeatherDisplay:10.37,2013-09-19 09:44:00,
2013-09-19 05:49:00,41.7,40.6,30.08,NW,325,0.0,0.0,96,0.00,SKC,OVC,0.00,WeatherDisplay:10.37,2013-09-19 09:49:00,
2013-09-19 05:54:00,41.8,40.7,30.08,NW,325,0.0,0.0,96,0.00,SKC,OVC,0.00,WeatherDisplay:10.37,2013-09-19 09:54:00,
2013-09-19 05:59:00,41.9,40.8,30.08,NW,325,0.0,0.0,96,0.00,SKC,OVC,0.00,WeatherDisplay:10.37,2013-09-19 09:59:00,
2013-09-19 06:04:00,41.8,40.7,30.08,NW,325,0.0,0.0,96,0.00,SKC,OVC,0.00,WeatherDisplay:10.37,2013-09-19 10:04:00,
2013-09-19 06:09:00,41.7,40.6,30.08,NW,325,0.0,0.0,96,0.00,SKC,OVC,0.00,WeatherDisplay:10.37,2013-09-19 10:09:00,
2013-09-19 06:14:00,41.6,40.5,30.08,NW,325,0.0,0.0,96,0.00,FEW,OVC,0.00,WeatherDisplay:10.37,2013-09-19 10:14:00,
2013-09-19 06:19:00,41.8,40.7,30.08,NW,325,0.0,0.0,96,0.00,FEW,OVC,0.00,WeatherDisplay:10.37,2013-09-19 10:19:00,
2013-09-19 06:24:00,41.9,40.8,30.08,NW,325,0.0,0.0,96,0.00,FEW,OVC,0.00,WeatherDisplay:10.37,2013-09-19 10:24:00,
2013-09-19 06:29:00,41.9,40.8,30.08,NW,325,0.0,0.0,96,0.00,FEW,OVC,0.00,WeatherDisplay:10.37,2013-09-19 10:29:00,
2013-09-19 06:34:00,41.7,40.6,30.08,NW,325,0.0,0.0,96,0.00,FEW,OVC,0.00,WeatherDisplay:10.37,2013-09-19 10:34:00,
2013-09-19 06:39:00,41.6,40.5,30.08,NW,325,0.0,0.0,96,0.00,FEW,OVC,0.00,WeatherDisplay:10.37,2013-09-19 10:39:00,
2013-09-19 06:44:00,41.6,40.5,30.08,NW,325,0.0,0.0,96,0.00,FEW,OVC,0.00,WeatherDisplay:10.37,2013-09-19 10:44:00,
2013-09-19 06:49:00,41.6,40.5,30.09,NW,325,0.0,0.0,96,0.00,FEW,OVC,0.00,WeatherDisplay:10.37,2013-09-19 10:49:00,
2013-09-19 06:54:00,41.6,40.5,30.09,NW,325,0.0,0.0,96,0.00,FEW,OVC,0.00,WeatherDisplay:10.37,2013-09-19 10:54:00,
2013-09-19 06:59:00,41.6,40.5,30.09,NW,325,0.0,0.0,96,0.00,FEW,OVC,0.00,WeatherDisplay:10.37,2013-09-19 10:59:00,
2013-09-19 07:04:00,41.8,41.8,30.09,NW,325,0.0,0.0,100,0.00,FEW,OVC,0.00,WeatherDisplay:10.37,2013-09-19 11:04:00,
2013-09-19 07:09:00,41.9,41.1,30.09,NW,325,0.0,0.0,97,0.00,FEW,OVC,0.00,WeatherDisplay:10.37,2013-09-19 11:09:00,
2013-09-19 07:14:00,42.0,40.9,30.09,NW,325,0.0,0.0,96,0.00,FEW,OVC,0.00,WeatherDisplay:10.37,2013-09-19 11:14:00,
2013-09-19 07:19:00,42.1,41.0,30.09,NW,325,0.0,0.0,96,0.00,FEW,OVC,0.00,WeatherDisplay:10.37,2013-09-19 11:19:00,
2013-09-19 07:24:00,42.3,42.3,30.09,NW,325,0.0,0.0,100,0.00,FEW,OVC,0.00,WeatherDisplay:10.37,2013-09-19 11:24:00,
2013-09-19 07:29:00,42.5,42.5,30.09,NW,325,0.0,0.0,100,0.00,FEW,OVC,0.00,WeatherDisplay:10.37,2013-09-19 11:29:00,
2013-09-19 07:34:00,42.8,42.8,30.09,NW,325,0.0,0.0,100,0.00,FEW,OVC,0.00,WeatherDisplay:10.37,2013-09-19 11:34:00,
2013-09-19 07:39:00,43.2,43.2,30.09,NW,325,0.0,0.0,100,0.00,FEW,OVC,0.00,WeatherDisplay:10.37,2013-09-19 11:39:00,
2013-09-19 07:44:00,43.5,43.5,30.09,NW,325,0.0,0.0,100,0.00,FEW,OVC,0.00,WeatherDisplay:10.37,2013-09-19 11:44:00,
2013-09-19 07:49:00,44.0,44.0,30.09,NW,325,0.0,0.0,100,0.00,FEW,OVC,0.00,WeatherDisplay:10.37,2013-09-19 11:49:00,
2013-09-19 07:54:00,44.5,44.5,30.09,NW,325,0.0,0.0,100,0.00,FEW,OVC,0.00,WeatherDisplay:10.37,2013-09-19 11:54:00,
2013-09-19 07:59:00,44.9,44.9,30.09,NW,325,0.0,0.0,100,0.00,FEW,OVC,0.00,WeatherDisplay:10.37,2013-09-19 11:59:00,
2013-09-19 08:04:00,45.4,45.4,30.09,NW,325,0.0,0.0,100,0.00,FEW,OVC,0.00,WeatherDisplay:10.37,2013-09-19 12:04:00,
2013-09-19 08:09:00,46.2,46.2,30.09,NW,325,0.0,0.0,100,0.00,FEW,OVC,0.00,WeatherDisplay:10.37,2013-09-19 12:09:00,
2013-09-19 08:14:00,46.9,46.9,30.09,NW,325,0.0,0.0,100,0.00,FEW,OVC,0.00,WeatherDisplay:10.37,2013-09-19 12:14:00,
2013-09-19 08:19:00,47.5,47.5,30.09,NW,325,0.0,0.0,100,0.00,FEW,OVC,0.00,WeatherDisplay:10.37,2013-09-19 12:19:00,
2013-09-19 08:24:00,48.2,48.2,30.09,NW,325,0.0,0.0,100,0.00,FEW,OVC,0.00,WeatherDisplay:10.37,2013-09-19 12:24:00,
2013-09-19 08:29:00,48.9,48.9,30.09,NW,325,0.0,0.0,100,0.00,FEW,OVC,0.00,WeatherDisplay:10.37,2013-09-19 12:29:00,
2013-09-19 08:34:00,50.0,50.0,30.09,NW,325,0.0,0.0,100,0.00,FEW,OVC,0.00,WeatherDisplay:10.37,2013-09-19 12:34:00,
2013-09-19 08:39:00,50.9,50.9,30.09,NW,324,0.0,0.0,100,0.00,FEW,OVC,0.00,WeatherDisplay:10.37,2013-09-19 12:39:00,
2013-09-19 08:44:00,51.8,51.8,30.09,NW,313,0.0,0.0,100,0.00,FEW,OVC,0.00,WeatherDisplay:10.37,2013-09-19 12:44:00,
2013-09-19 08:49:00,52.6,51.5,30.09,WNW,301,0.0,0.0,96,0.00,FEW,OVC,0.00,WeatherDisplay:10.37,2013-09-19 12:49:00,
2013-09-19 08:54:00,53.4,51.7,30.09,WNW,299,0.0,0.0,94,0.00,FEW,OVC,0.00,WeatherDisplay:10.37,2013-09-19 12:54:00,
2013-09-19 08:59:00,54.1,51.9,30.09,WNW,299,0.0,0.0,92,0.00,FEW,OVC,0.00,WeatherDisplay:10.37,2013-09-19 12:59:00,
2013-09-19 09:04:00,54.9,52.3,30.09,WNW,300,0.0,0.0,91,0.00,FEW,OVC,0.00,WeatherDisplay:10.37,2013-09-19 13:04:00,
2013-09-19 09:09:00,55.8,52.3,30.08,WNW,291,0.0,2.0,88,0.00,FEW,OVC,0.00,WeatherDisplay:10.37,2013-09-19 13:09:00,
2013-09-19 09:19:00,57.2,53.7,30.09,West,259,0.0,0.0,88,0.00,FEW,OVC,0.00,WeatherDisplay:10.37,2013-09-19 13:19:00,
2013-09-19 09:24:00,58.0,53.2,30.09,WSW,250,0.0,2.0,84,0.00,FEW,OVC,0.00,WeatherDisplay:10.37,2013-09-19 13:24:00,
2013-09-19 09:29:00,59.2,53.7,30.08,West,268,0.0,0.0,82,0.00,FEW,OVC,0.00,WeatherDisplay:10.37,2013-09-19 13:29:00,
2013-09-19 09:34:00,59.8,52.9,30.08,WSW,252,1.0,3.0,78,0.00,FEW,OVC,0.00,WeatherDisplay:10.37,2013-09-19 13:34:00,
2013-09-19 09:39:00,60.4,53.9,30.08,SW,223,0.0,3.0,79,0.00,FEW,OVC,0.00,WeatherDisplay:10.37,2013-09-19 13:39:00,
2013-09-19 09:44:00,61.1,53.5,30.08,WSW,253,1.0,4.0,76,0.00,FEW,OVC,0.00,WeatherDisplay:10.37,2013-09-19 13:44:00,
2013-09-19 09:54:00,61.9,53.2,30.08,West,262,1.0,4.0,73,0.00,FEW,OVC,0.00,WeatherDisplay:10.37,2013-09-19 13:54:00,
2013-09-19 09:59:00,62.3,54.6,30.08,West,269,0.0,3.0,76,0.00,FEW,OVC,0.00,WeatherDisplay:10.37,2013-09-19 13:59:00,
2013-09-19 10:04:00,62.7,52.8,30.08,WSW,255,1.0,5.0,70,0.00,FEW,OVC,0.00,WeatherDisplay:10.37,2013-09-19 14:04:00,
2013-09-19 10:09:00,63.2,54.0,30.08,WSW,251,0.0,2.0,72,0.00,FEW,OVC,0.00,WeatherDisplay:10.37,2013-09-19 14:09:00,
2013-09-19 10:14:00,63.3,53.0,30.08,WSW,255,1.0,3.0,69,0.00,FEW,OVC,0.00,WeatherDisplay:10.37,2013-09-19 14:14:00,
2013-09-19 10:19:00,63.3,52.6,30.08,WSW,243,1.0,4.0,68,0.00,FEW,OVC,0.00,WeatherDisplay:10.37,2013-09-19 14:19:00,
2013-09-19 10:29:00,64.1,52.5,30.08,West,278,1.0,5.0,66,0.00,FEW,OVC,0.00,WeatherDisplay:10.37,2013-09-19 14:29:00,
2013-09-19 10:34:00,64.4,52.8,30.08,West,263,0.0,4.0,66,0.00,FEW,OVC,0.00,WeatherDisplay:10.37,2013-09-19 14:34:00,
2013-09-19 10:39:00,64.8,53.6,30.08,West,269,0.0,3.0,67,0.00,FEW,OVC,0.00,WeatherDisplay:10.37,2013-09-19 14:39:00,
2013-09-19 10:44:00,64.9,52.0,30.08,WNW,291,2.0,7.0,63,0.00,FEW,OVC,0.00,WeatherDisplay:10.37,2013-09-19 14:44:00,
2013-09-19 10:49:00,65.4,53.7,30.08,NW,305,0.0,3.0,66,0.00,FEW,OVC,0.00,WeatherDisplay:10.37,2013-09-19 14:49:00,
2013-09-19 10:54:00,65.2,52.3,30.08,West,268,1.0,4.0,63,0.00,FEW,OVC,0.00,WeatherDisplay:10.37,2013-09-19 14:54:00,
2013-09-19 10:59:00,65.1,52.2,30.08,WSW,254,0.0,5.0,63,0.00,FEW,OVC,0.00,WeatherDisplay:10.37,2013-09-19 14:59:00,
2013-09-19 11:04:00,65.1,51.8,30.08,West,280,1.0,5.0,62,0.00,FEW,OVC,0.00,WeatherDisplay:10.37,2013-09-19 15:04:00,
2013-09-19 11:09:00,65.5,51.7,30.07,West,280,1.0,5.0,61,0.00,FEW,OVC,0.00,WeatherDisplay:10.37,2013-09-19 15:09:00,
2013-09-19 11:14:00,65.7,54.0,30.07,West,275,0.0,3.0,66,0.00,FEW,OVC,0.00,WeatherDisplay:10.37,2013-09-19 15:14:00,
2013-09-19 11:19:00,66.0,52.2,30.07,WSW,242,0.0,4.0,61,0.00,FEW,OVC,0.00,WeatherDisplay:10.37,2013-09-19 15:19:00,
2013-09-19 11:24:00,66.5,54.0,30.07,WSW,237,1.0,4.0,64,0.00,FEW,OVC,0.00,WeatherDisplay:10.37,2013-09-19 15:24:00,
2013-09-19 11:29:00,66.2,53.2,30.07,SSW,204,1.0,5.0,63,0.00,FEW,OVC,0.00,WeatherDisplay:10.37,2013-09-19 15:29:00,
2013-09-19 11:34:00,66.6,53.1,30.07,SSW,206,0.0,3.0,62,0.00,FEW,OVC,0.00,WeatherDisplay:10.37,2013-09-19 15:34:00,
2013-09-19 11:39:00,66.7,52.8,30.07,South,172,0.0,2.0,61,0.00,FEW,OVC,0.00,WeatherDisplay:10.37,2013-09-19 15:39:00,
2013-09-19 11:44:00,67.0,53.1,30.07,WNW,286,1.0,6.0,61,0.00,FEW,OVC,0.00,WeatherDisplay:10.37,2013-09-19 15:44:00,
2013-09-19 11:49:00,67.1,54.5,30.07,WSW,244,0.0,1.0,64,0.00,FEW,OVC,0.00,WeatherDisplay:10.37,2013-09-19 15:49:00,
2013-09-19 11:54:00,67.3,53.8,30.06,WSW,244,0.0,5.0,62,0.00,FEW,OVC,0.00,WeatherDisplay:10.37,2013-09-19 15:54:00,
2013-09-19 11:59:00,67.4,53.5,30.07,West,275,0.0,5.0,61,0.00,FEW,OVC,0.00,WeatherDisplay:10.37,2013-09-19 15:59:00,
2013-09-19 12:04:00,67.3,52.5,30.07,WNW,300,1.0,5.0,59,0.00,FEW,OVC,0.00,WeatherDisplay:10.37,2013-09-19 16:04:00,
2013-09-19 12:09:00,67.4,53.5,30.06,WNW,294,1.0,5.0,61,0.00,FEW,OVC,0.00,WeatherDisplay:10.37,2013-09-19 16:09:00,
2013-09-19 12:14:00,68.1,54.1,30.06,WNW,284,0.0,4.0,61,0.00,FEW,OVC,0.00,WeatherDisplay:10.37,2013-09-19 16:14:00,
2013-09-19 12:19:00,68.3,53.9,30.06,WSW,258,0.0,4.0,60,0.00,FEW,OVC,0.00,WeatherDisplay:10.37,2013-09-19 16:19:00,
2013-09-19 12:24:00,68.0,52.7,30.06,WSW,249,2.0,7.0,58,0.00,FEW,OVC,0.00,WeatherDisplay:10.37,2013-09-19 16:24:00,
2013-09-19 12:29:00,68.1,53.2,30.06,WSW,254,1.0,5.0,59,0.00,FEW,OVC,0.00,WeatherDisplay:10.37,2013-09-19 16:29:00,
2013-09-19 12:34:00,68.3,52.9,30.06,WSW,242,1.0,8.0,58,0.00,FEW,OVC,0.00,WeatherDisplay:10.37,2013-09-19 16:34:00,
2013-09-19 12:39:00,68.4,54.0,30.05,SW,233,0.0,4.0,60,0.00,FEW,OVC,0.00,WeatherDisplay:10.37,2013-09-19 16:39:00,
2013-09-19 12:44:00,68.9,54.9,30.05,WSW,238,0.0,2.0,61,0.00,FEW,OVC,0.00,WeatherDisplay:10.37,2013-09-19 16:44:00,
2013-09-19 12:49:00,68.9,53.5,30.05,WNW,291,2.0,6.0,58,0.00,FEW,OVC,0.00,WeatherDisplay:10.37,2013-09-19 16:49:00,
2013-09-19 12:54:00,69.0,54.5,30.05,SW,220,0.0,3.0,60,0.00,FEW,OVC,0.00,WeatherDisplay:10.37,2013-09-19 16:54:00,
2013-09-19 12:59:00,68.9,55.3,30.05,WSW,249,0.0,4.0,62,0.00,FEW,OVC,0.00,WeatherDisplay:10.37,2013-09-19 16:59:00,
2013-09-19 13:04:00,69.3,55.3,30.05,WSW,243,0.0,4.0,61,0.00,FEW,OVC,0.00,WeatherDisplay:10.37,2013-09-19 17:04:00,
2013-09-19 13:09:00,69.3,54.8,30.05,South,177,1.0,7.0,60,0.00,FEW,OVC,0.00,WeatherDisplay:10.37,2013-09-19 17:09:00,
2013-09-19 13:14:00,69.3,54.4,30.05,SW,216,1.0,6.0,59,0.00,FEW,OVC,0.00,WeatherDisplay:10.37,2013-09-19 17:14:00,
2013-09-19 13:19:00,69.3,53.9,30.05,West,267,1.0,5.0,58,0.00,FEW,OVC,0.00,WeatherDisplay:10.37,2013-09-19 17:19:00,
2013-09-19 13:24:00,69.7,54.7,30.05,WSW,254,0.0,5.0,59,0.00,FEW,OVC,0.00,WeatherDisplay:10.37,2013-09-19 17:24:00,
2013-09-19 13:29:00,69.8,53.9,30.04,SW,222,1.0,6.0,57,0.00,FEW,OVC,0.00,WeatherDisplay:10.37,2013-09-19 17:29:00,
2013-09-19 13:34:00,69.7,54.7,30.04,SW,231,2.0,6.0,59,0.00,FEW,OVC,0.00,WeatherDisplay:10.37,2013-09-19 17:34:00,
2013-09-19 13:39:00,70.2,55.6,30.04,SSW,210,2.0,5.0,60,0.00,FEW,OVC,0.00,WeatherDisplay:10.37,2013-09-19 17:39:00,
2013-09-19 13:44:00,70.4,55.8,30.04,SW,217,0.0,4.0,60,0.00,FEW,OVC,0.00,WeatherDisplay:10.37,2013-09-19 17:44:00,
2013-09-19 13:49:00,70.7,55.6,30.03,South,191,2.0,8.0,59,0.00,FEW,OVC,0.00,WeatherDisplay:10.37,2013-09-19 17:49:00,
2013-09-19 13:59:00,71.0,56.4,30.04,West,261,2.0,9.0,60,0.00,FEW,OVC,0.00,WeatherDisplay:10.37,2013-09-19 17:59:00,
2013-09-19 14:04:00,70.8,56.3,30.03,West,260,0.0,9.0,60,0.00,FEW,OVC,0.00,WeatherDisplay:10.37,2013-09-19 18:04:00,
2013-09-19 14:09:00,71.0,56.9,30.03,West,262,0.0,4.0,61,0.00,FEW,OVC,0.00,WeatherDisplay:10.37,2013-09-19 18:09:00,
2013-09-19 14:14:00,71.4,56.8,30.03,WSW,239,0.0,3.0,60,0.00,FEW,OVC,0.00,WeatherDisplay:10.37,2013-09-19 18:14:00,
2013-09-19 14:19:00,71.4,55.8,30.03,WSW,249,0.0,3.0,58,0.00,FEW,OVC,0.00,WeatherDisplay:10.37,2013-09-19 18:19:00,
2013-09-19 14:24:00,71.8,55.8,30.03,West,275,2.0,7.0,57,0.00,FEW,OVC,0.00,WeatherDisplay:10.37,2013-09-19 18:24:00,
2013-09-19 14:29:00,71.6,55.6,30.03,NW,310,3.0,12.0,57,0.00,FEW,OVC,0.00,WeatherDisplay:10.37,2013-09-19 18:29:00,
2013-09-19 14:34:00,71.8,55.7,30.03,NW,310,2.0,7.0,57,0.00,FEW,OVC,0.00,WeatherDisplay:10.37,2013-09-19 18:34:00,
2013-09-19 14:39:00,71.9,54.9,30.03,WNW,302,2.0,8.0,55,0.00,FEW,OVC,0.00,WeatherDisplay:10.37,2013-09-19 18:39:00,
2013-09-19 14:44:00,72.1,56.0,30.03,NW,314,1.0,4.0,57,0.00,FEW,OVC,0.00,WeatherDisplay:10.37,2013-09-19 18:44:00,
2013-09-19 14:49:00,72.2,57.1,30.02,WSW,253,1.0,6.0,59,0.00,FEW,OVC,0.00,WeatherDisplay:10.37,2013-09-19 18:49:00,
2013-09-19 14:54:00,72.3,56.2,30.02,SW,226,2.0,7.0,57,0.00,FEW,OVC,0.00,WeatherDisplay:10.37,2013-09-19 18:54:00,
2013-09-19 14:59:00,72.5,56.4,30.02,SW,233,2.0,7.0,57,0.00,FEW,OVC,0.00,WeatherDisplay:10.37,2013-09-19 18:59:00,
2013-09-19 15:04:00,72.3,56.2,30.02,West,265,1.0,7.0,57,0.00,FEW,OVC,0.00,WeatherDisplay:10.37,2013-09-19 19:04:00,
2013-09-19 15:09:00,72.4,56.3,30.02,WSW,244,2.0,7.0,57,0.00,FEW,OVC,0.00,WeatherDisplay:10.37,2013-09-19 19:09:00,
2013-09-19 15:19:00,72.5,56.4,30.02,SW,228,3.0,10.0,57,0.00,FEW,OVC,0.00,WeatherDisplay:10.37,2013-09-19 19:19:00,
2013-09-19 15:24:00,72.4,56.8,30.01,SW,219,1.0,10.0,58,0.00,FEW,OVC,0.00,WeatherDisplay:10.37,2013-09-19 19:24:00,
2013-09-19 15:29:00,72.5,56.4,30.01,WSW,237,1.0,4.0,57,0.00,FEW,OVC,0.00,WeatherDisplay:10.37,2013-09-19 19:29:00,
2013-09-19 15:34:00,72.5,55.9,30.01,WSW,238,1.0,7.0,56,0.00,FEW,OVC,0.00,WeatherDisplay:10.37,2013-09-19 19:34:00,
2013-09-19 15:39:00,72.4,56.3,30.01,South,191,3.0,8.0,57,0.00,FEW,OVC,0.00,WeatherDisplay:10.37,2013-09-19 19:39:00,
2013-09-19 15:44:00,72.4,55.8,30.01,SW,225,1.0,7.0,56,0.00,FEW,OVC,0.00,WeatherDisplay:10.37,2013-09-19 19:44:00,
2013-09-19 15:49:00,72.7,56.1,30.01,WSW,252,3.0,7.0,56,0.00,FEW,OVC,0.00,WeatherDisplay:10.37,2013-09-19 19:49:00,
2013-09-19 15:54:00,72.7,56.1,30.01,WNW,302,1.0,5.0,56,0.00,FEW,OVC,0.00,WeatherDisplay:10.37,2013-09-19 19:54:00,
2013-09-19 15:59:00,72.5,57.4,30.00,West,271,1.0,6.0,59,0.00,FEW,OVC,0.00,WeatherDisplay:10.37,2013-09-19 19:59:00,
2013-09-19 16:04:00,72.5,56.4,30.00,WNW,289,2.0,8.0,57,0.00,FEW,OVC,0.00,WeatherDisplay:10.37,2013-09-19 20:04:00,
2013-09-19 16:09:00,72.3,56.7,30.00,WNW,283,1.0,5.0,58,0.00,FEW,OVC,0.00,WeatherDisplay:10.37,2013-09-19 20:09:00,
2013-09-19 16:14:00,72.3,57.1,30.00,West,260,0.0,4.0,59,0.00,FEW,OVC,0.00,WeatherDisplay:10.37,2013-09-19 20:14:00,
2013-09-19 16:19:00,72.4,56.8,30.00,West,274,0.0,6.0,58,0.00,FEW,OVC,0.00,WeatherDisplay:10.37,2013-09-19 20:19:00,
2013-09-19 16:24:00,72.3,57.7,30.00,WNW,284,0.0,3.0,60,0.00,FEW,OVC,0.00,WeatherDisplay:10.37,2013-09-19 20:24:00,
2013-09-19 16:29:00,72.5,58.3,30.00,WNW,285,0.0,4.0,61,0.00,FEW,OVC,0.00,WeatherDisplay:10.37,2013-09-19 20:29:00,
2013-09-19 16:34:00,72.5,56.4,30.00,WNW,286,2.0,5.0,57,0.00,FEW,OVC,0.00,WeatherDisplay:10.37,2013-09-19 20:34:00,
2013-09-19 16:39:00,72.5,56.4,30.00,West,273,0.0,5.0,57,0.00,FEW,OVC,0.00,WeatherDisplay:10.37,2013-09-19 20:39:00,
2013-09-19 16:44:00,72.1,56.5,30.00,WSW,247,1.0,4.0,58,0.00,FEW,OVC,0.00,WeatherDisplay:10.37,2013-09-19 20:44:00,
2013-09-19 16:49:00,72.3,56.7,30.00,WNW,302,1.0,6.0,58,0.00,FEW,OVC,0.00,WeatherDisplay:10.37,2013-09-19 20:49:00,
2013-09-19 16:54:00,72.2,57.1,30.00,WNW,293,1.0,5.0,59,0.00,FEW,OVC,0.00,WeatherDisplay:10.37,2013-09-19 20:54:00,
2013-09-19 16:59:00,72.0,55.9,30.00,West,265,1.0,6.0,57,0.00,FEW,OVC,0.00,WeatherDisplay:10.37,2013-09-19 20:59:00,
2013-09-19 17:04:00,71.7,56.1,30.00,West,261,2.0,6.0,58,0.00,FEW,OVC,0.00,WeatherDisplay:10.37,2013-09-19 21:04:00,
2013-09-19 17:09:00,71.5,56.4,30.00,WSW,252,0.0,4.0,59,0.00,FEW,OVC,0.00,WeatherDisplay:10.37,2013-09-19 21:09:00,
2013-09-19 17:14:00,71.4,56.3,30.00,West,262,0.0,4.0,59,0.00,FEW,OVC,0.00,WeatherDisplay:10.37,2013-09-19 21:14:00,
2013-09-19 17:19:00,71.2,57.6,30.00,West,263,0.0,6.0,62,0.00,FEW,OVC,0.00,WeatherDisplay:10.37,2013-09-19 21:19:00,
2013-09-19 17:24:00,70.7,56.6,30.00,WSW,253,1.0,5.0,61,0.00,FEW,OVC,0.00,WeatherDisplay:10.37,2013-09-19 21:24:00,
2013-09-19 17:29:00,70.7,57.0,30.00,WSW,249,1.0,4.0,62,0.00,FEW,OVC,0.00,WeatherDisplay:10.37,2013-09-19 21:29:00,
2013-09-19 17:39:00,70.5,58.2,30.00,West,275,0.0,1.0,65,0.00,FEW,OVC,0.00,WeatherDisplay:10.37,2013-09-19 21:39:00,
2013-09-19 17:44:00,70.3,58.0,30.00,WNW,292,0.0,1.0,65,0.00,FEW,OVC,0.00,WeatherDisplay:10.37,2013-09-19 21:44:00,
2013-09-19 17:49:00,70.3,57.9,30.00,West,281,0.0,3.0,65,0.00,FEW,OVC,0.00,WeatherDisplay:10.37,2013-09-19 21:49:00,
2013-09-19 17:54:00,70.0,57.7,30.00,SW,230,0.0,4.0,65,0.00,FEW,OVC,0.00,WeatherDisplay:10.37,2013-09-19 21:54:00,
2013-09-19 17:59:00,69.9,57.6,30.00,WSW,239,0.0,4.0,65,0.00,FEW,OVC,0.00,WeatherDisplay:10.37,2013-09-19 21:59:00,
2013-09-19 18:04:00,69.5,57.6,30.00,WSW,247,0.0,3.0,66,0.00,FEW,OVC,0.00,WeatherDisplay:10.37,2013-09-19 22:04:00,
2013-09-19 18:09:00,69.1,57.3,30.00,WSW,251,0.0,2.0,66,0.00,FEW,OVC,0.00,WeatherDisplay:10.37,2013-09-19 22:09:00,
2013-09-19 18:14:00,68.8,57.8,30.00,WSW,252,0.0,1.0,68,0.00,FEW,OVC,0.00,WeatherDisplay:10.37,2013-09-19 22:14:00,
2013-09-19 18:19:00,68.4,57.9,30.00,WSW,243,0.0,1.0,69,0.00,FEW,OVC,0.00,WeatherDisplay:10.37,2013-09-19 22:19:00,
2013-09-19 18:24:00,67.9,57.8,30.00,SW,226,0.0,0.0,70,0.00,FEW,OVC,0.00,WeatherDisplay:10.37,2013-09-19 22:24:00,
2013-09-19 18:29:00,67.6,58.2,30.01,SW,217,0.0,0.0,72,0.00,FEW,OVC,0.00,WeatherDisplay:10.37,2013-09-19 22:29:00,
2013-09-19 18:34:00,66.6,58.8,30.01,SW,217,0.0,0.0,76,0.00,FEW,OVC,0.00,WeatherDisplay:10.37,2013-09-19 22:34:00,
2013-09-19 18:39:00,66.0,58.6,30.00,SW,217,0.0,0.0,77,0.00,FEW,OVC,0.00,WeatherDisplay:10.37,2013-09-19 22:39:00,
2013-09-19 18:44:00,65.6,58.2,30.01,SW,217,0.0,0.0,77,0.00,FEW,OVC,0.00,WeatherDisplay:10.37,2013-09-19 22:44:00,
2013-09-19 18:49:00,64.9,58.6,30.01,SW,217,0.0,0.0,80,0.00,FEW,OVC,0.00,WeatherDisplay:10.37,2013-09-19 22:49:00,
2013-09-19 18:54:00,64.4,58.5,30.01,SW,217,0.0,0.0,81,0.00,FEW,OVC,0.00,WeatherDisplay:10.37,2013-09-19 22:54:00,
2013-09-19 18:59:00,63.9,58.6,30.01,SW,217,0.0,0.0,83,0.00,FEW,OVC,0.00,WeatherDisplay:10.37,2013-09-19 22:59:00,
2013-09-19 19:04:00,63.6,58.0,30.00,SW,217,0.0,0.0,82,0.00,FEW,OVC,0.00,WeatherDisplay:10.37,2013-09-19 23:04:00,
2013-09-19 19:09:00,63.3,58.1,30.00,SW,217,0.0,0.0,83,0.00,FEW,OVC,0.00,WeatherDisplay:10.37,2013-09-19 23:09:00,
2013-09-19 19:14:00,62.8,58.2,30.00,SW,217,0.0,0.0,85,0.00,FEW,OVC,0.00,WeatherDisplay:10.37,2013-09-19 23:14:00,
2013-09-19 19:19:00,62.3,58.1,30.00,SW,217,0.0,0.0,86,0.00,FEW,OVC,0.00,WeatherDisplay:10.37,2013-09-19 23:19:00,
2013-09-19 19:24:00,61.8,57.6,30.00,SW,217,0.0,0.0,86,0.00,FEW,OVC,0.00,WeatherDisplay:10.37,2013-09-19 23:24:00,
2013-09-19 19:29:00,61.6,57.7,30.01,SW,217,0.0,0.0,87,0.00,FEW,OVC,0.00,WeatherDisplay:10.37,2013-09-19 23:29:00,
2013-09-19 19:34:00,61.4,57.8,30.01,SW,217,0.0,0.0,88,0.00,FEW,OVC,0.00,WeatherDisplay:10.37,2013-09-19 23:34:00,
2013-09-19 19:39:00,61.0,57.4,30.01,SW,217,0.0,0.0,88,0.00,FEW,OVC,0.00,WeatherDisplay:10.37,2013-09-19 23:39:00,
2013-09-19 19:44:00,60.7,57.4,30.01,SW,217,0.0,0.0,89,0.00,FEW,OVC,0.00,WeatherDisplay:10.37,2013-09-19 23:44:00,
2013-09-19 19:49:00,60.4,57.2,30.01,SW,217,0.0,0.0,89,0.00,FEW,OVC,0.00,WeatherDisplay:10.37,2013-09-19 23:49:00,
2013-09-19 19:54:00,60.3,57.0,30.01,SW,217,0.0,0.0,89,0.00,FEW,OVC,0.00,WeatherDisplay:10.37,2013-09-19 23:54:00,
2013-09-19 19:59:00,60.2,57.3,30.01,SW,217,0.0,0.0,90,0.00,FEW,OVC,0.00,WeatherDisplay:10.37,2013-09-19 23:59:00,
2013-09-19 20:04:00,60.2,57.2,30.01,SW,217,0.0,0.0,90,0.00,FEW,OVC,0.00,WeatherDisplay:10.37,2013-09-20 00:04:00,
2013-09-19 20:09:00,59.8,56.8,30.02,SW,217,0.0,0.0,90,0.00,FEW,OVC,0.00,WeatherDisplay:10.37,2013-09-20 00:09:00,
2013-09-19 20:14:00,59.7,57.1,30.02,WNW,289,0.0,0.0,91,0.00,FEW,OVC,0.00,WeatherDisplay:10.37,2013-09-20 00:14:00,
2013-09-19 20:19:00,59.8,56.9,30.02,North,360,0.0,0.0,90,0.00,FEW,OVC,0.00,WeatherDisplay:10.37,2013-09-20 00:19:00,
2013-09-19 20:24:00,59.7,57.1,30.02,North,360,0.0,0.0,91,0.00,FEW,OVC,0.00,WeatherDisplay:10.37,2013-09-20 00:24:00,
2013-09-19 20:29:00,59.4,56.8,30.02,North,360,0.0,0.0,91,0.00,FEW,OVC,0.00,WeatherDisplay:10.37,2013-09-20 00:29:00,
2013-09-19 20:34:00,59.2,56.6,30.02,North,360,0.0,0.0,91,0.00,FEW,OVC,0.00,WeatherDisplay:10.37,2013-09-20 00:34:00,
2013-09-19 20:39:00,58.8,56.2,30.02,North,360,0.0,0.0,91,0.00,FEW,OVC,0.00,WeatherDisplay:10.37,2013-09-20 00:39:00,
2013-09-19 20:44:00,58.6,56.3,30.02,North,360,0.0,0.0,92,0.00,FEW,OVC,0.00,WeatherDisplay:10.37,2013-09-20 00:44:00,
2013-09-19 20:49:00,58.4,56.1,30.02,North,360,0.0,0.0,92,0.00,FEW,OVC,0.00,WeatherDisplay:10.37,2013-09-20 00:49:00,
2013-09-19 20:54:00,58.3,56.3,30.02,North,360,0.0,0.0,93,0.00,FEW,OVC,0.00,WeatherDisplay:10.37,2013-09-20 00:54:00,
2013-09-19 21:04:00,57.8,55.8,30.02,North,360,0.0,0.0,93,0.00,FEW,OVC,0.00,WeatherDisplay:10.37,2013-09-20 01:04:00,
2013-09-19 21:09:00,57.7,55.7,30.03,North,360,0.0,0.0,93,0.00,FEW,OVC,0.00,WeatherDisplay:10.37,2013-09-20 01:09:00,
2013-09-19 21:19:00,58.0,56.3,30.03,North,360,0.0,0.0,94,0.00,FEW,OVC,0.00,WeatherDisplay:10.37,2013-09-20 01:19:00,
2013-09-19 21:24:00,58.1,56.1,30.02,North,360,0.0,0.0,93,0.00,FEW,OVC,0.00,WeatherDisplay:10.37,2013-09-20 01:24:00,
2013-09-19 21:29:00,58.0,56.0,30.02,North,360,0.0,0.0,93,0.00,FEW,OVC,0.00,WeatherDisplay:10.37,2013-09-20 01:29:00,
2013-09-19 21:39:00,57.7,55.7,30.02,North,360,0.0,0.0,93,0.00,FEW,OVC,0.00,WeatherDisplay:10.37,2013-09-20 01:39:00,
2013-09-19 21:44:00,57.6,55.6,30.02,North,360,0.0,0.0,93,0.00,FEW,OVC,0.00,WeatherDisplay:10.37,2013-09-20 01:44:00,
2013-09-19 21:49:00,57.4,55.4,30.02,North,360,0.0,0.0,93,0.00,FEW,OVC,0.00,WeatherDisplay:10.37,2013-09-20 01:49:00,
2013-09-19 21:54:00,57.2,55.5,30.02,North,360,0.0,0.0,94,0.00,FEW,OVC,0.00,WeatherDisplay:10.37,2013-09-20 01:54:00,
2013-09-19 21:59:00,57.0,55.3,30.02,North,360,0.0,0.0,94,0.00,FEW,OVC,0.00,WeatherDisplay:10.37,2013-09-20 01:59:00,
2013-09-19 22:04:00,56.8,55.1,30.02,North,360,0.0,0.0,94,0.00,FEW,OVC,0.00,WeatherDisplay:10.37,2013-09-20 02:04:00,
2013-09-19 22:09:00,56.8,55.4,30.02,North,360,0.0,0.0,95,0.00,FEW,OVC,0.00,WeatherDisplay:10.37,2013-09-20 02:09:00,
2013-09-19 22:14:00,56.7,55.0,30.02,North,360,0.0,0.0,94,0.00,FEW,OVC,0.00,WeatherDisplay:10.37,2013-09-20 02:14:00,
2013-09-19 22:19:00,56.7,55.0,30.01,North,360,0.0,0.0,94,0.00,FEW,OVC,0.00,WeatherDisplay:10.37,2013-09-20 02:19:00,
2013-09-19 22:24:00,56.7,55.0,30.02,North,360,0.0,0.0,94,0.00,FEW,OVC,0.00,WeatherDisplay:10.37,2013-09-20 02:24:00,
2013-09-19 22:29:00,56.6,54.9,30.02,North,360,0.0,0.0,94,0.00,FEW,OVC,0.00,WeatherDisplay:10.37,2013-09-20 02:29:00,
2013-09-19 22:34:00,56.5,54.8,30.02,North,360,0.0,0.0,94,0.00,FEW,OVC,0.00,WeatherDisplay:10.37,2013-09-20 02:34:00,
2013-09-19 22:40:00,56.4,55.0,30.02,North,360,0.0,0.0,95,0.00,FEW,OVC,0.00,WeatherDisplay:10.37,2013-09-20 02:40:00,
2013-09-19 22:45:00,56.4,55.0,30.02,North,360,0.0,0.0,95,0.00,FEW,OVC,0.00,WeatherDisplay:10.37,2013-09-20 02:45:00,
2013-09-19 22:50:00,56.3,54.9,30.01,North,360,0.0,0.0,95,0.00,FEW,OVC,0.00,WeatherDisplay:10.37,2013-09-20 02:50:00,
2013-09-19 22:55:00,56.3,54.9,30.01,North,360,0.0,0.0,95,0.00,FEW,OVC,0.00,WeatherDisplay:10.37,2013-09-20 02:55:00,
2013-09-19 23:00:00,56.3,54.9,30.02,North,360,0.0,0.0,95,0.00,FEW,OVC,0.00,WeatherDisplay:10.37,2013-09-20 03:00:00,
2013-09-19 23:05:00,56.5,55.1,30.02,North,360,0.0,0.0,95,0.00,FEW,OVC,0.00,WeatherDisplay:10.37,2013-09-20 03:05:00,
2013-09-19 23:10:00,56.7,55.3,30.01,North,360,0.0,0.0,95,0.00,FEW,OVC,0.00,WeatherDisplay:10.37,2013-09-20 03:10:00,
2013-09-19 23:15:00,56.8,55.1,30.02,North,360,0.0,0.0,94,0.00,FEW,OVC,0.00,WeatherDisplay:10.37,2013-09-20 03:15:00,
2013-09-19 23:20:00,56.8,55.1,30.01,North,360,0.0,0.0,94,0.00,FEW,OVC,0.00,WeatherDisplay:10.37,2013-09-20 03:20:00,
2013-09-19 23:25:00,56.7,55.3,30.02,North,360,0.0,0.0,95,0.00,FEW,OVC,0.00,WeatherDisplay:10.37,2013-09-20 03:25:00,
2013-09-19 23:30:00,56.8,55.4,30.02,North,360,0.0,0.0,95,0.00,FEW,OVC,0.00,WeatherDisplay:10.37,2013-09-20 03:30:00,
2013-09-19 23:35:00,57.0,55.6,30.01,North,360,0.0,0.0,95,0.00,FEW,OVC,0.00,WeatherDisplay:10.37,2013-09-20 03:35:00,
2013-09-19 23:40:00,57.2,55.5,30.02,North,360,0.0,0.0,94,0.00,FEW,OVC,0.00,WeatherDisplay:10.37,2013-09-20 03:40:00,
2013-09-19 23:45:00,57.3,55.6,30.01,North,360,0.0,0.0,94,0.00,FEW,OVC,0.00,WeatherDisplay:10.37,2013-09-20 03:45:00,
2013-09-19 23:50:00,57.4,55.7,30.01,North,360,0.0,0.0,94,0.00,FEW,OVC,0.00,WeatherDisplay:10.37,2013-09-20 03:50:00,
2013-09-19 23:55:00,57.5,55.5,30.00,North,360,0.0,0.0,93,0.00,FEW,OVC,0.00,WeatherDisplay:10.37,2013-09-20 03:55:00,